Terminal Aerodrome Forecast
Issued by NWS

Home | Current Version | Previous Version | Text Only | Print | Product List | Glossary Off
Versions: 1 2 3 4 5 6 7 8 9 10 11 12 13 14 15 16

000
FTUS43 KBIS 310600 AAA
TAFMOT
TAF AMD
KMOT 310655Z 3107/0106 VRB03KT P6SM -RA VCTS OVC015CB
     FM310800 21007KT P6SM -SHRA OVC035
     FM311100 28004KT P6SM BKN020
     FM312000 30008KT P6SM SCT020 BKN150=

USA.gov is the U.S. government's official web portal to all federal, state and local government web resources and services.